Terminal Aerodrome Forecast
Issued by NWS

Home | Current Version | Previous Version | Text Only | Print | Product List | Glossary On
Versions: 1 2 3 4 5 6 7 8 9 10 11 12 13 14
000
FTUS45 KMSO 241900 AAA
TAFSMN
TAF AMD
KSMN 241900Z 2419/2518 20015G22KT P6SM BKN090 BKN200
     FM250000 20010KT P6SM VCSH OVC070
     FM250300 23008KT P6SM -SHRA BKN050 OVC070
      AMD LTD TO CLD VIS AND WIND=

USA.gov is the U.S. government's official web portal to all federal, state and local government web resources and services.